Airfield :
LOGIN :

Register | Disclaimer

   EN    FR    IT 

 










Legend :    VFR   Marginal VFR   IFR   Intensive IFR   Very Intensive IFR
Visi :
Ceiling :
>= 8 km
>= 3000ft
5 to 8 km
1000 to 3000 ft
1500m to 5 km
500 to 1000 ft
800 to 1500m
200 to 500 ft
< 800m
< 200 ft
Symbols :   Thunderstorms  Fog  Heavy snow  Heavy precipitations  Wind > 20 kt
SIGMETs :     Misc.  Thunderstorms  Icing  Turbulence  Mountain Waves  Volcanic Ashes






- Airport Elevation : 309 ft
- IATA code : FNI


LFTW - Nîmes Garons

CURRENT METAR :
  • 162200Z AUTO 19005KT 150V210 CAVOK 18/13 Q1015

EXPIRED METARs :
  • 162130Z AUTO 18005KT CAVOK 17/13 Q1014
  • 162100Z AUTO 19005KT CAVOK 18/13 Q1014
  • 162030Z AUTO 20004KT 170V230 CAVOK 19/13 Q1014
  • 162000Z AUTO 22005KT CAVOK 19/13 Q1014
  • 161930Z AUTO 22005KT CAVOK 20/13 Q1013
  • 161900Z AUTO 22006KT 180V240 CAVOK 21/13 Q1013 NOSIG
  • 161830Z AUTO 22006KT 180V250 CAVOK 23/11 Q1013 NOSIG
  • 161800Z AUTO 20007KT 170V240 CAVOK 24/12 Q1013 NOSIG
  • 161730Z AUTO 21007KT 180V260 CAVOK 25/11 Q1012 NOSIG

TAF TAF LFTW
Valid from the 16 at 15:00 until the 17 at 15:00 UTC


161400Z 1615/1715 24008KT CAVOK
BECMG 1708/1711 16012KT



MET'MAP, your aeronautical weather chart ! - Copyright ORBIFLY December 2007 - Disclaimer

ORBIFLY MET'MAP TEAM :

Programming & Development : Alexandra Zaïnal
Original concept : Baudouin d'Aumeries
Technical & hardware support : Manuel Goepfert
Assistance : Marc-Olivier Méhu




SOURCES & CREDITS :

   NOAA